sensor_id;sensor_type;location;lat;lon;timestamp;P1;durP1;ratioP1;P2;durP2;ratioP2
5391;SDS011;2719;53.624;9.786;2023-03-23T00:00:05;4.20;;;2.50;;
5391;SDS011;2719;53.624;9.786;2023-03-23T00:02:33;12.13;;;2.83;;
5391;SDS011;2719;53.624;9.786;2023-03-23T00:05:03;5.33;;;3.47;;
5391;SDS011;2719;53.624;9.786;2023-03-23T00:07:31;5.10;;;2.93;;
5391;SDS011;2719;53.624;9.786;2023-03-23T00:09:58;11.13;;;4.73;;
5391;SDS011;2719;53.624;9.786;2023-03-23T00:12:29;9.33;;;3.97;;
5391;SDS011;2719;53.624;9.786;2023-03-23T00:14:58;10.53;;;4.87;;
5391;SDS011;2719;53.624;9.786;2023-03-23T00:17:26;8.87;;;4.10;;
5391;SDS011;2719;53.624;9.786;2023-03-23T00:19:53;10.00;;;4.00;;
5391;SDS011;2719;53.624;9.786;2023-03-23T00:22:20;9.60;;;3.93;;
5391;SDS011;2719;53.624;9.786;2023-03-23T00:24:50;11.30;;;4.50;;
5391;SDS011;2719;53.624;9.786;2023-03-23T00:27:17;6.23;;;3.77;;
5391;SDS011;2719;53.624;9.786;2023-03-23T00:29:48;7.37;;;4.17;;
5391;SDS011;2719;53.624;9.786;2023-03-23T00:32:17;8.67;;;4.97;;
5391;SDS011;2719;53.624;9.786;2023-03-23T00:34:45;9.97;;;5.23;;
5391;SDS011;2719;53.624;9.786;2023-03-23T00:37:13;8.30;;;4.10;;
5391;SDS011;2719;53.624;9.786;2023-03-23T00:39:41;8.73;;;4.97;;
5391;SDS011;2719;53.624;9.786;2023-03-23T00:42:10;8.60;;;5.53;;
5391;SDS011;2719;53.624;9.786;2023-03-23T00:44:37;8.60;;;4.97;;
5391;SDS011;2719;53.624;9.786;2023-03-23T00:47:06;10.47;;;5.40;;
5391;SDS011;2719;53.624;9.786;2023-03-23T00:49:33;7.63;;;5.00;;
5391;SDS011;2719;53.624;9.786;2023-03-23T00:52:01;13.10;;;6.80;;
5391;SDS011;2719;53.624;9.786;2023-03-23T00:54:28;7.53;;;5.10;;
5391;SDS011;2719;53.624;9.786;2023-03-23T00:56:55;9.13;;;5.30;;
5391;SDS011;2719;53.624;9.786;2023-03-23T00:59:22;8.97;;;5.80;;
5391;SDS011;2719;53.624;9.786;2023-03-23T01:01:48;7.63;;;5.77;;
5391;SDS011;2719;53.624;9.786;2023-03-23T01:04:17;9.07;;;5.20;;
5391;SDS011;2719;53.624;9.786;2023-03-23T01:06:44;7.90;;;5.10;;
5391;SDS011;2719;53.624;9.786;2023-03-23T01:09:15;8.50;;;5.53;;
5391;SDS011;2719;53.624;9.786;2023-03-23T01:11:44;9.83;;;5.60;;
5391;SDS011;2719;53.624;9.786;2023-03-23T01:14:12;7.23;;;5.63;;
5391;SDS011;2719;53.624;9.786;2023-03-23T01:16:42;7.87;;;5.30;;
5391;SDS011;2719;53.624;9.786;2023-03-23T01:19:08;13.30;;;6.70;;
5391;SDS011;2719;53.624;9.786;2023-03-23T01:21:37;9.53;;;6.47;;
5391;SDS011;2719;53.624;9.786;2023-03-23T01:24:03;9.87;;;5.87;;
5391;SDS011;2719;53.624;9.786;2023-03-23T01:26:31;8.23;;;5.20;;
5391;SDS011;2719;53.624;9.786;2023-03-23T01:28:57;8.73;;;6.30;;
5391;SDS011;2719;53.624;9.786;2023-03-23T01:31:24;11.23;;;5.37;;
5391;SDS011;2719;53.624;9.786;2023-03-23T01:33:52;9.87;;;5.60;;
5391;SDS011;2719;53.624;9.786;2023-03-23T01:36:21;13.50;;;6.13;;
5391;SDS011;2719;53.624;9.786;2023-03-23T01:38:50;11.97;;;5.83;;
5391;SDS011;2719;53.624;9.786;2023-03-23T01:41:18;11.50;;;5.33;;
5391;SDS011;2719;53.624;9.786;2023-03-23T01:43:54;8.80;;;5.60;;
5391;SDS011;2719;53.624;9.786;2023-03-23T01:46:24;8.97;;;5.60;;
5391;SDS011;2719;53.624;9.786;2023-03-23T01:48:52;11.50;;;5.73;;
5391;SDS011;2719;53.624;9.786;2023-03-23T01:51:20;9.90;;;5.70;;
5391;SDS011;2719;53.624;9.786;2023-03-23T01:53:48;11.90;;;6.40;;
5391;SDS011;2719;53.624;9.786;2023-03-23T01:56:21;9.03;;;5.73;;
5391;SDS011;2719;53.624;9.786;2023-03-23T01:58:50;10.70;;;6.30;;
5391;SDS011;2719;53.624;9.786;2023-03-23T02:01:18;10.93;;;6.00;;
5391;SDS011;2719;53.624;9.786;2023-03-23T02:03:49;8.90;;;6.50;;
5391;SDS011;2719;53.624;9.786;2023-03-23T02:06:17;21.17;;;6.97;;
5391;SDS011;2719;53.624;9.786;2023-03-23T02:08:44;11.70;;;8.43;;
5391;SDS011;2719;53.624;9.786;2023-03-23T02:11:16;10.17;;;6.63;;
5391;SDS011;2719;53.624;9.786;2023-03-23T02:13:44;9.20;;;6.23;;
5391;SDS011;2719;53.624;9.786;2023-03-23T02:16:14;9.10;;;6.37;;
5391;SDS011;2719;53.624;9.786;2023-03-23T02:18:49;11.40;;;7.00;;
5391;SDS011;2719;53.624;9.786;2023-03-23T02:24:43;8.90;;;5.70;;
5391;SDS011;2719;53.624;9.786;2023-03-23T02:30:31;10.60;;;6.10;;
5391;SDS011;2719;53.624;9.786;2023-03-23T02:36:03;9.93;;;6.63;;
5391;SDS011;2719;53.624;9.786;2023-03-23T02:38:37;13.00;;;6.30;;
5391;SDS011;2719;53.624;9.786;2023-03-23T02:41:08;12.00;;;5.90;;
5391;SDS011;2719;53.624;9.786;2023-03-23T02:43:39;11.60;;;6.67;;
5391;SDS011;2719;53.624;9.786;2023-03-23T02:46:08;8.93;;;5.73;;
5391;SDS011;2719;53.624;9.786;2023-03-23T02:48:37;9.87;;;6.40;;
5391;SDS011;2719;53.624;9.786;2023-03-23T02:51:07;8.93;;;6.00;;
5391;SDS011;2719;53.624;9.786;2023-03-23T02:53:36;10.20;;;5.67;;
5391;SDS011;2719;53.624;9.786;2023-03-23T02:56:06;8.50;;;6.00;;
5391;SDS011;2719;53.624;9.786;2023-03-23T02:58:35;10.10;;;5.87;;
5391;SDS011;2719;53.624;9.786;2023-03-23T03:01:12;8.10;;;5.57;;
5391;SDS011;2719;53.624;9.786;2023-03-23T03:03:44;10.70;;;5.37;;
5391;SDS011;2719;53.624;9.786;2023-03-23T03:06:14;7.00;;;4.33;;
5391;SDS011;2719;53.624;9.786;2023-03-23T03:08:54;14.73;;;6.93;;
5391;SDS011;2719;53.624;9.786;2023-03-23T03:11:25;10.60;;;6.40;;
5391;SDS011;2719;53.624;9.786;2023-03-23T03:13:52;9.80;;;4.63;;
5391;SDS011;2719;53.624;9.786;2023-03-23T03:16:24;8.10;;;5.13;;
5391;SDS011;2719;53.624;9.786;2023-03-23T03:18:57;8.93;;;5.43;;
5391;SDS011;2719;53.624;9.786;2023-03-23T03:21:30;13.07;;;4.80;;
5391;SDS011;2719;53.624;9.786;2023-03-23T03:24:00;9.20;;;5.87;;
5391;SDS011;2719;53.624;9.786;2023-03-23T03:26:29;7.30;;;4.53;;
5391;SDS011;2719;53.624;9.786;2023-03-23T03:28:57;8.07;;;4.80;;
5391;SDS011;2719;53.624;9.786;2023-03-23T03:31:26;13.13;;;5.50;;
5391;SDS011;2719;53.624;9.786;2023-03-23T03:33:57;8.87;;;5.67;;
5391;SDS011;2719;53.624;9.786;2023-03-23T03:36:26;10.77;;;4.57;;
5391;SDS011;2719;53.624;9.786;2023-03-23T03:39:00;10.60;;;5.37;;
5391;SDS011;2719;53.624;9.786;2023-03-23T03:41:28;7.23;;;4.77;;
5391;SDS011;2719;53.624;9.786;2023-03-23T03:43:55;7.37;;;4.87;;
5391;SDS011;2719;53.624;9.786;2023-03-23T03:46:22;6.50;;;5.20;;
5391;SDS011;2719;53.624;9.786;2023-03-23T03:48:51;8.00;;;5.27;;
5391;SDS011;2719;53.624;9.786;2023-03-23T03:51:19;9.10;;;6.00;;
5391;SDS011;2719;53.624;9.786;2023-03-23T03:53:46;8.30;;;6.40;;
5391;SDS011;2719;53.624;9.786;2023-03-23T03:56:13;10.30;;;5.80;;
5391;SDS011;2719;53.624;9.786;2023-03-23T03:58:39;9.87;;;5.80;;
5391;SDS011;2719;53.624;9.786;2023-03-23T04:01:07;8.80;;;5.13;;
5391;SDS011;2719;53.624;9.786;2023-03-23T04:03:35;9.50;;;6.33;;
5391;SDS011;2719;53.624;9.786;2023-03-23T04:06:02;6.13;;;4.40;;
5391;SDS011;2719;53.624;9.786;2023-03-23T04:08:31;9.20;;;5.80;;
5391;SDS011;2719;53.624;9.786;2023-03-23T04:10:58;9.87;;;4.40;;
5391;SDS011;2719;53.624;9.786;2023-03-23T04:13:25;13.57;;;5.40;;
5391;SDS011;2719;53.624;9.786;2023-03-23T04:15:52;7.20;;;4.60;;
5391;SDS011;2719;53.624;9.786;2023-03-23T04:18:18;6.47;;;4.40;;
5391;SDS011;2719;53.624;9.786;2023-03-23T04:20:47;11.00;;;5.33;;
5391;SDS011;2719;53.624;9.786;2023-03-23T04:23:14;10.40;;;5.47;;
5391;SDS011;2719;53.624;9.786;2023-03-23T04:25:46;8.37;;;5.17;;
5391;SDS011;2719;53.624;9.786;2023-03-23T04:28:13;11.60;;;5.57;;
5391;SDS011;2719;53.624;9.786;2023-03-23T04:30:41;6.80;;;4.40;;
5391;SDS011;2719;53.624;9.786;2023-03-23T04:33:08;9.30;;;5.90;;
5391;SDS011;2719;53.624;9.786;2023-03-23T04:35:39;8.53;;;5.40;;
5391;SDS011;2719;53.624;9.786;2023-03-23T04:38:06;8.47;;;5.30;;
5391;SDS011;2719;53.624;9.786;2023-03-23T04:40:35;7.13;;;4.90;;
5391;SDS011;2719;53.624;9.786;2023-03-23T04:43:04;6.63;;;4.97;;
5391;SDS011;2719;53.624;9.786;2023-03-23T04:45:31;10.93;;;4.67;;
5391;SDS011;2719;53.624;9.786;2023-03-23T04:47:59;11.07;;;5.10;;
5391;SDS011;2719;53.624;9.786;2023-03-23T04:50:27;7.93;;;4.83;;
5391;SDS011;2719;53.624;9.786;2023-03-23T04:52:55;7.80;;;4.60;;
5391;SDS011;2719;53.624;9.786;2023-03-23T04:55:24;7.53;;;4.90;;
5391;SDS011;2719;53.624;9.786;2023-03-23T04:57:52;7.30;;;5.27;;
5391;SDS011;2719;53.624;9.786;2023-03-23T05:00:20;7.70;;;4.80;;
5391;SDS011;2719;53.624;9.786;2023-03-23T05:02:47;9.07;;;5.47;;
5391;SDS011;2719;53.624;9.786;2023-03-23T05:05:16;7.90;;;4.90;;
5391;SDS011;2719;53.624;9.786;2023-03-23T05:07:44;7.73;;;4.33;;
5391;SDS011;2719;53.624;9.786;2023-03-23T05:10:11;12.50;;;4.67;;
5391;SDS011;2719;53.624;9.786;2023-03-23T05:12:39;8.80;;;4.90;;
5391;SDS011;2719;53.624;9.786;2023-03-23T05:15:07;11.47;;;6.37;;
5391;SDS011;2719;53.624;9.786;2023-03-23T05:17:36;12.10;;;6.10;;
5391;SDS011;2719;53.624;9.786;2023-03-23T05:20:04;14.17;;;6.40;;
5391;SDS011;2719;53.624;9.786;2023-03-23T05:22:33;8.67;;;5.33;;
5391;SDS011;2719;53.624;9.786;2023-03-23T05:25:01;12.03;;;5.40;;
5391;SDS011;2719;53.624;9.786;2023-03-23T05:27:28;9.77;;;5.47;;
5391;SDS011;2719;53.624;9.786;2023-03-23T05:29:55;7.73;;;5.10;;
5391;SDS011;2719;53.624;9.786;2023-03-23T05:32:23;10.23;;;4.47;;
5391;SDS011;2719;53.624;9.786;2023-03-23T05:34:54;8.10;;;5.10;;
5391;SDS011;2719;53.624;9.786;2023-03-23T05:37:22;8.67;;;5.03;;
5391;SDS011;2719;53.624;9.786;2023-03-23T05:39:49;16.57;;;5.03;;
5391;SDS011;2719;53.624;9.786;2023-03-23T05:42:18;9.20;;;5.50;;
5391;SDS011;2719;53.624;9.786;2023-03-23T05:44:45;9.37;;;6.37;;
5391;SDS011;2719;53.624;9.786;2023-03-23T05:47:12;13.00;;;5.97;;
5391;SDS011;2719;53.624;9.786;2023-03-23T05:49:39;9.67;;;4.50;;
5391;SDS011;2719;53.624;9.786;2023-03-23T05:52:07;9.07;;;5.00;;
5391;SDS011;2719;53.624;9.786;2023-03-23T05:54:34;15.43;;;4.20;;
5391;SDS011;2719;53.624;9.786;2023-03-23T05:57:01;5.40;;;4.17;;
5391;SDS011;2719;53.624;9.786;2023-03-23T05:59:27;12.83;;;5.97;;
5391;SDS011;2719;53.624;9.786;2023-03-23T06:01:54;8.07;;;4.50;;
5391;SDS011;2719;53.624;9.786;2023-03-23T06:04:22;7.77;;;4.73;;
5391;SDS011;2719;53.624;9.786;2023-03-23T06:06:49;5.13;;;3.80;;
5391;SDS011;2719;53.624;9.786;2023-03-23T06:09:18;10.20;;;4.10;;
5391;SDS011;2719;53.624;9.786;2023-03-23T06:11:44;9.90;;;5.07;;
5391;SDS011;2719;53.624;9.786;2023-03-23T06:14:12;7.53;;;3.90;;
5391;SDS011;2719;53.624;9.786;2023-03-23T06:16:39;6.43;;;4.00;;
5391;SDS011;2719;53.624;9.786;2023-03-23T06:19:06;7.23;;;3.33;;
5391;SDS011;2719;53.624;9.786;2023-03-23T06:21:33;9.10;;;3.13;;
5391;SDS011;2719;53.624;9.786;2023-03-23T06:24:00;8.20;;;3.63;;
5391;SDS011;2719;53.624;9.786;2023-03-23T06:26:28;8.60;;;5.03;;
5391;SDS011;2719;53.624;9.786;2023-03-23T06:28:58;8.23;;;4.77;;
5391;SDS011;2719;53.624;9.786;2023-03-23T06:31:24;7.70;;;3.90;;
5391;SDS011;2719;53.624;9.786;2023-03-23T06:33:53;11.70;;;4.63;;
5391;SDS011;2719;53.624;9.786;2023-03-23T06:36:20;6.50;;;3.87;;
5391;SDS011;2719;53.624;9.786;2023-03-23T06:38:47;8.20;;;3.60;;
5391;SDS011;2719;53.624;9.786;2023-03-23T06:41:14;6.10;;;3.20;;
5391;SDS011;2719;53.624;9.786;2023-03-23T06:43:42;5.63;;;3.50;;
5391;SDS011;2719;53.624;9.786;2023-03-23T06:46:11;5.50;;;3.03;;
5391;SDS011;2719;53.624;9.786;2023-03-23T06:48:37;7.53;;;3.10;;
5391;SDS011;2719;53.624;9.786;2023-03-23T06:51:04;4.43;;;2.50;;
5391;SDS011;2719;53.624;9.786;2023-03-23T06:53:32;6.00;;;3.30;;
5391;SDS011;2719;53.624;9.786;2023-03-23T06:55:59;5.03;;;2.23;;
5391;SDS011;2719;53.624;9.786;2023-03-23T06:58:25;4.10;;;2.77;;
5391;SDS011;2719;53.624;9.786;2023-03-23T07:00:54;7.40;;;3.10;;
5391;SDS011;2719;53.624;9.786;2023-03-23T07:03:23;4.60;;;2.10;;
5391;SDS011;2719;53.624;9.786;2023-03-23T07:05:50;6.13;;;2.83;;
5391;SDS011;2719;53.624;9.786;2023-03-23T07:08:17;7.77;;;3.30;;
5391;SDS011;2719;53.624;9.786;2023-03-23T07:10:44;6.83;;;2.80;;
5391;SDS011;2719;53.624;9.786;2023-03-23T07:13:10;4.40;;;2.00;;
5391;SDS011;2719;53.624;9.786;2023-03-23T07:15:38;4.77;;;2.20;;
5391;SDS011;2719;53.624;9.786;2023-03-23T07:18:06;3.00;;;1.83;;
5391;SDS011;2719;53.624;9.786;2023-03-23T07:20:33;5.50;;;2.03;;
5391;SDS011;2719;53.624;9.786;2023-03-23T07:22:59;3.40;;;1.80;;
5391;SDS011;2719;53.624;9.786;2023-03-23T07:25:27;12.03;;;3.20;;
5391;SDS011;2719;53.624;9.786;2023-03-23T07:27:53;7.50;;;2.40;;
5391;SDS011;2719;53.624;9.786;2023-03-23T07:30:20;6.90;;;2.50;;
5391;SDS011;2719;53.624;9.786;2023-03-23T07:32:47;6.33;;;2.23;;
5391;SDS011;2719;53.624;9.786;2023-03-23T07:35:15;3.13;;;1.77;;
5391;SDS011;2719;53.624;9.786;2023-03-23T07:37:42;5.40;;;2.27;;
5391;SDS011;2719;53.624;9.786;2023-03-23T07:40:09;4.07;;;2.17;;
5391;SDS011;2719;53.624;9.786;2023-03-23T07:42:39;6.23;;;2.33;;
5391;SDS011;2719;53.624;9.786;2023-03-23T07:45:08;5.30;;;1.90;;
5391;SDS011;2719;53.624;9.786;2023-03-23T07:47:35;7.17;;;2.73;;
5391;SDS011;2719;53.624;9.786;2023-03-23T07:50:02;4.43;;;2.97;;
5391;SDS011;2719;53.624;9.786;2023-03-23T07:52:31;6.47;;;1.30;;
5391;SDS011;2719;53.624;9.786;2023-03-23T07:54:57;4.80;;;0.67;;
5391;SDS011;2719;53.624;9.786;2023-03-23T07:57:26;2.90;;;0.50;;
5391;SDS011;2719;53.624;9.786;2023-03-23T07:59:53;3.13;;;0.60;;
5391;SDS011;2719;53.624;9.786;2023-03-23T08:02:20;1.63;;;0.50;;
5391;SDS011;2719;53.624;9.786;2023-03-23T08:04:47;2.17;;;0.60;;
5391;SDS011;2719;53.624;9.786;2023-03-23T08:07:13;6.17;;;0.60;;
5391;SDS011;2719;53.624;9.786;2023-03-23T08:09:42;2.03;;;0.40;;
5391;SDS011;2719;53.624;9.786;2023-03-23T08:12:09;2.70;;;0.47;;
5391;SDS011;2719;53.624;9.786;2023-03-23T08:14:36;1.93;;;0.50;;
5391;SDS011;2719;53.624;9.786;2023-03-23T08:17:03;3.10;;;0.50;;
5391;SDS011;2719;53.624;9.786;2023-03-23T08:19:30;2.03;;;0.53;;
5391;SDS011;2719;53.624;9.786;2023-03-23T08:22:01;3.17;;;0.40;;
5391;SDS011;2719;53.624;9.786;2023-03-23T08:24:29;1.40;;;0.60;;
5391;SDS011;2719;53.624;9.786;2023-03-23T08:26:57;1.67;;;0.50;;
5391;SDS011;2719;53.624;9.786;2023-03-23T08:29:23;1.83;;;0.40;;
5391;SDS011;2719;53.624;9.786;2023-03-23T08:31:51;1.87;;;0.57;;
5391;SDS011;2719;53.624;9.786;2023-03-23T08:34:18;1.00;;;0.40;;
5391;SDS011;2719;53.624;9.786;2023-03-23T08:36:45;5.10;;;0.60;;
5391;SDS011;2719;53.624;9.786;2023-03-23T08:39:12;2.03;;;0.60;;
5391;SDS011;2719;53.624;9.786;2023-03-23T08:41:39;5.87;;;0.60;;
5391;SDS011;2719;53.624;9.786;2023-03-23T08:44:07;3.20;;;0.70;;
5391;SDS011;2719;53.624;9.786;2023-03-23T08:46:34;11.20;;;1.60;;
5391;SDS011;2719;53.624;9.786;2023-03-23T08:49:01;2.70;;;0.70;;
5391;SDS011;2719;53.624;9.786;2023-03-23T08:51:27;5.87;;;0.73;;
5391;SDS011;2719;53.624;9.786;2023-03-23T08:53:54;4.17;;;1.17;;
5391;SDS011;2719;53.624;9.786;2023-03-23T08:56:21;3.90;;;1.00;;
5391;SDS011;2719;53.624;9.786;2023-03-23T08:58:48;1.40;;;0.67;;
5391;SDS011;2719;53.624;9.786;2023-03-23T09:01:16;5.67;;;0.70;;
5391;SDS011;2719;53.624;9.786;2023-03-23T09:03:43;4.70;;;0.70;;
5391;SDS011;2719;53.624;9.786;2023-03-23T09:06:10;2.50;;;0.70;;
5391;SDS011;2719;53.624;9.786;2023-03-23T09:08:37;4.60;;;1.00;;
5391;SDS011;2719;53.624;9.786;2023-03-23T09:11:06;2.50;;;0.77;;
5391;SDS011;2719;53.624;9.786;2023-03-23T09:13:34;4.87;;;1.17;;
5391;SDS011;2719;53.624;9.786;2023-03-23T09:16:02;5.70;;;0.97;;
5391;SDS011;2719;53.624;9.786;2023-03-23T09:18:31;8.27;;;0.90;;
5391;SDS011;2719;53.624;9.786;2023-03-23T09:20:58;3.83;;;0.73;;
5391;SDS011;2719;53.624;9.786;2023-03-23T09:23:26;6.00;;;0.73;;
5391;SDS011;2719;53.624;9.786;2023-03-23T09:25:52;2.33;;;0.97;;
5391;SDS011;2719;53.624;9.786;2023-03-23T09:28:19;3.43;;;1.27;;
5391;SDS011;2719;53.624;9.786;2023-03-23T09:30:46;4.40;;;1.10;;
5391;SDS011;2719;53.624;9.786;2023-03-23T09:33:14;4.30;;;0.97;;
5391;SDS011;2719;53.624;9.786;2023-03-23T09:35:42;3.70;;;1.00;;
5391;SDS011;2719;53.624;9.786;2023-03-23T09:38:09;4.40;;;0.97;;
5391;SDS011;2719;53.624;9.786;2023-03-23T09:40:40;6.83;;;1.00;;
5391;SDS011;2719;53.624;9.786;2023-03-23T09:43:18;3.40;;;1.53;;
5391;SDS011;2719;53.624;9.786;2023-03-23T09:45:54;10.37;;;1.20;;
5391;SDS011;2719;53.624;9.786;2023-03-23T09:48:31;11.43;;;1.30;;
5391;SDS011;2719;53.624;9.786;2023-03-23T09:51:07;6.13;;;0.90;;
5391;SDS011;2719;53.624;9.786;2023-03-23T09:53:43;7.87;;;1.40;;
5391;SDS011;2719;53.624;9.786;2023-03-23T09:56:14;5.63;;;0.80;;
5391;SDS011;2719;53.624;9.786;2023-03-23T09:58:44;7.93;;;0.90;;
5391;SDS011;2719;53.624;9.786;2023-03-23T10:01:17;8.70;;;1.20;;
5391;SDS011;2719;53.624;9.786;2023-03-23T10:03:48;5.73;;;1.20;;
5391;SDS011;2719;53.624;9.786;2023-03-23T10:06:19;4.23;;;0.97;;
5391;SDS011;2719;53.624;9.786;2023-03-23T10:08:48;9.80;;;0.80;;
5391;SDS011;2719;53.624;9.786;2023-03-23T10:11:18;8.73;;;1.10;;
5391;SDS011;2719;53.624;9.786;2023-03-23T10:13:57;11.73;;;1.47;;
5391;SDS011;2719;53.624;9.786;2023-03-23T10:16:47;4.50;;;0.70;;
5391;SDS011;2719;53.624;9.786;2023-03-23T10:19:25;4.63;;;1.03;;
5391;SDS011;2719;53.624;9.786;2023-03-23T10:21:59;9.77;;;1.10;;
5391;SDS011;2719;53.624;9.786;2023-03-23T10:24:32;6.07;;;0.97;;
5391;SDS011;2719;53.624;9.786;2023-03-23T10:27:04;8.73;;;1.00;;
5391;SDS011;2719;53.624;9.786;2023-03-23T10:29:43;12.40;;;1.90;;
5391;SDS011;2719;53.624;9.786;2023-03-23T10:32:16;7.37;;;0.90;;
5391;SDS011;2719;53.624;9.786;2023-03-23T10:34:47;7.00;;;1.10;;
5391;SDS011;2719;53.624;9.786;2023-03-23T10:37:21;6.10;;;0.73;;
5391;SDS011;2719;53.624;9.786;2023-03-23T10:39:52;7.53;;;0.90;;
5391;SDS011;2719;53.624;9.786;2023-03-23T10:42:21;4.53;;;0.80;;
5391;SDS011;2719;53.624;9.786;2023-03-23T10:44:50;9.90;;;1.33;;
5391;SDS011;2719;53.624;9.786;2023-03-23T10:47:16;14.90;;;1.30;;
5391;SDS011;2719;53.624;9.786;2023-03-23T10:49:43;12.70;;;1.73;;
5391;SDS011;2719;53.624;9.786;2023-03-23T10:52:19;4.77;;;0.80;;
5391;SDS011;2719;53.624;9.786;2023-03-23T10:54:54;5.27;;;0.90;;
5391;SDS011;2719;53.624;9.786;2023-03-23T10:57:23;9.17;;;0.90;;
5391;SDS011;2719;53.624;9.786;2023-03-23T10:59:57;7.50;;;0.77;;
5391;SDS011;2719;53.624;9.786;2023-03-23T11:02:26;9.83;;;1.03;;
5391;SDS011;2719;53.624;9.786;2023-03-23T11:04:54;12.63;;;0.93;;
5391;SDS011;2719;53.624;9.786;2023-03-23T11:07:26;17.90;;;1.43;;
5391;SDS011;2719;53.624;9.786;2023-03-23T11:10:04;11.50;;;1.07;;
5391;SDS011;2719;53.624;9.786;2023-03-23T11:12:34;10.73;;;1.83;;
5391;SDS011;2719;53.624;9.786;2023-03-23T11:15:16;15.70;;;1.60;;
5391;SDS011;2719;53.624;9.786;2023-03-23T11:17:54;14.93;;;1.27;;
5391;SDS011;2719;53.624;9.786;2023-03-23T11:20:23;10.20;;;1.40;;
5391;SDS011;2719;53.624;9.786;2023-03-23T11:22:52;8.93;;;1.50;;
5391;SDS011;2719;53.624;9.786;2023-03-23T11:25:20;9.23;;;1.37;;
5391;SDS011;2719;53.624;9.786;2023-03-23T11:27:47;10.83;;;1.17;;
5391;SDS011;2719;53.624;9.786;2023-03-23T11:30:19;10.20;;;1.47;;
5391;SDS011;2719;53.624;9.786;2023-03-23T11:32:49;11.50;;;1.83;;
5391;SDS011;2719;53.624;9.786;2023-03-23T11:35:19;22.60;;;1.97;;
5391;SDS011;2719;53.624;9.786;2023-03-23T11:37:49;6.90;;;1.70;;
5391;SDS011;2719;53.624;9.786;2023-03-23T11:40:20;14.30;;;1.47;;
5391;SDS011;2719;53.624;9.786;2023-03-23T11:42:49;18.30;;;2.07;;
5391;SDS011;2719;53.624;9.786;2023-03-23T11:45:25;14.13;;;2.17;;
5391;SDS011;2719;53.624;9.786;2023-03-23T11:48:00;12.10;;;2.20;;
5391;SDS011;2719;53.624;9.786;2023-03-23T11:50:44;10.70;;;2.40;;
5391;SDS011;2719;53.624;9.786;2023-03-23T11:53:18;8.23;;;1.47;;
5391;SDS011;2719;53.624;9.786;2023-03-23T11:55:55;19.00;;;1.37;;
5391;SDS011;2719;53.624;9.786;2023-03-23T11:58:33;11.93;;;2.00;;
5391;SDS011;2719;53.624;9.786;2023-03-23T12:01:04;16.93;;;1.40;;
5391;SDS011;2719;53.624;9.786;2023-03-23T12:03:39;11.87;;;2.80;;
5391;SDS011;2719;53.624;9.786;2023-03-23T12:06:31;7.70;;;0.83;;
5391;SDS011;2719;53.624;9.786;2023-03-23T12:09:08;6.70;;;1.00;;
5391;SDS011;2719;53.624;9.786;2023-03-23T12:11:48;6.30;;;1.10;;
5391;SDS011;2719;53.624;9.786;2023-03-23T12:14:24;6.23;;;0.97;;
5391;SDS011;2719;53.624;9.786;2023-03-23T12:16:59;12.70;;;1.87;;
5391;SDS011;2719;53.624;9.786;2023-03-23T12:19:34;10.07;;;1.03;;
5391;SDS011;2719;53.624;9.786;2023-03-23T12:22:11;5.27;;;1.23;;
5391;SDS011;2719;53.624;9.786;2023-03-23T12:24:51;8.37;;;1.30;;
5391;SDS011;2719;53.624;9.786;2023-03-23T12:27:26;6.47;;;1.23;;
5391;SDS011;2719;53.624;9.786;2023-03-23T12:30:01;11.20;;;1.60;;
5391;SDS011;2719;53.624;9.786;2023-03-23T12:32:38;7.90;;;1.20;;
5391;SDS011;2719;53.624;9.786;2023-03-23T12:35:14;7.73;;;1.10;;
5391;SDS011;2719;53.624;9.786;2023-03-23T12:37:53;12.23;;;1.83;;
5391;SDS011;2719;53.624;9.786;2023-03-23T12:40:41;11.50;;;1.20;;
5391;SDS011;2719;53.624;9.786;2023-03-23T12:43:18;4.53;;;0.90;;
5391;SDS011;2719;53.624;9.786;2023-03-23T12:45:57;7.30;;;1.10;;
5391;SDS011;2719;53.624;9.786;2023-03-23T12:48:35;6.87;;;1.60;;
5391;SDS011;2719;53.624;9.786;2023-03-23T12:51:17;14.33;;;1.90;;
5391;SDS011;2719;53.624;9.786;2023-03-23T12:53:52;3.10;;;0.80;;
5391;SDS011;2719;53.624;9.786;2023-03-23T12:56:25;6.77;;;1.27;;
5391;SDS011;2719;53.624;9.786;2023-03-23T12:58:58;4.77;;;0.90;;
5391;SDS011;2719;53.624;9.786;2023-03-23T13:01:29;8.43;;;1.20;;
5391;SDS011;2719;53.624;9.786;2023-03-23T13:03:59;6.37;;;1.30;;
5391;SDS011;2719;53.624;9.786;2023-03-23T13:06:32;14.83;;;1.93;;
5391;SDS011;2719;53.624;9.786;2023-03-23T13:09:03;11.30;;;1.87;;
5391;SDS011;2719;53.624;9.786;2023-03-23T13:11:39;7.87;;;1.63;;
5391;SDS011;2719;53.624;9.786;2023-03-23T13:14:15;9.20;;;1.50;;
5391;SDS011;2719;53.624;9.786;2023-03-23T13:16:51;5.10;;;1.10;;
5391;SDS011;2719;53.624;9.786;2023-03-23T13:19:25;9.83;;;1.23;;
5391;SDS011;2719;53.624;9.786;2023-03-23T13:21:59;5.87;;;0.97;;
5391;SDS011;2719;53.624;9.786;2023-03-23T13:24:31;9.90;;;1.47;;
5391;SDS011;2719;53.624;9.786;2023-03-23T13:27:04;3.13;;;0.87;;
5391;SDS011;2719;53.624;9.786;2023-03-23T13:29:34;9.30;;;1.40;;
5391;SDS011;2719;53.624;9.786;2023-03-23T13:32:06;4.93;;;1.37;;
5391;SDS011;2719;53.624;9.786;2023-03-23T13:34:38;7.23;;;2.83;;
5391;SDS011;2719;53.624;9.786;2023-03-23T13:37:10;6.90;;;1.10;;
5391;SDS011;2719;53.624;9.786;2023-03-23T13:39:47;8.07;;;0.60;;
5391;SDS011;2719;53.624;9.786;2023-03-23T13:42:20;1.50;;;0.60;;
5391;SDS011;2719;53.624;9.786;2023-03-23T13:44:56;4.80;;;0.50;;
5391;SDS011;2719;53.624;9.786;2023-03-23T13:47:38;12.13;;;1.17;;
5391;SDS011;2719;53.624;9.786;2023-03-23T13:50:10;0.90;;;0.43;;
5391;SDS011;2719;53.624;9.786;2023-03-23T13:52:46;1.40;;;0.40;;
5391;SDS011;2719;53.624;9.786;2023-03-23T13:55:18;2.87;;;0.40;;
5391;SDS011;2719;53.624;9.786;2023-03-23T13:57:52;1.90;;;0.43;;
5391;SDS011;2719;53.624;9.786;2023-03-23T14:00:35;5.90;;;0.53;;
5391;SDS011;2719;53.624;9.786;2023-03-23T14:03:11;2.03;;;0.50;;
5391;SDS011;2719;53.624;9.786;2023-03-23T14:05:41;1.20;;;0.40;;
5391;SDS011;2719;53.624;9.786;2023-03-23T14:08:11;5.33;;;0.60;;
5391;SDS011;2719;53.624;9.786;2023-03-23T14:10:41;3.30;;;0.67;;
5391;SDS011;2719;53.624;9.786;2023-03-23T14:13:13;2.07;;;0.60;;
5391;SDS011;2719;53.624;9.786;2023-03-23T14:15:44;2.50;;;1.13;;
5391;SDS011;2719;53.624;9.786;2023-03-23T14:18:19;1.70;;;0.50;;
5391;SDS011;2719;53.624;9.786;2023-03-23T14:20:50;2.80;;;0.70;;
5391;SDS011;2719;53.624;9.786;2023-03-23T14:23:17;9.90;;;0.70;;
5391;SDS011;2719;53.624;9.786;2023-03-23T14:25:53;5.13;;;0.77;;
5391;SDS011;2719;53.624;9.786;2023-03-23T14:28:23;6.50;;;0.50;;
5391;SDS011;2719;53.624;9.786;2023-03-23T14:30:53;6.77;;;0.60;;
5391;SDS011;2719;53.624;9.786;2023-03-23T14:33:22;8.50;;;1.00;;
5391;SDS011;2719;53.624;9.786;2023-03-23T14:35:51;4.10;;;0.70;;
5391;SDS011;2719;53.624;9.786;2023-03-23T14:38:18;13.00;;;0.70;;
5391;SDS011;2719;53.624;9.786;2023-03-23T14:40:48;4.10;;;0.87;;
5391;SDS011;2719;53.624;9.786;2023-03-23T14:43:16;4.83;;;0.60;;
5391;SDS011;2719;53.624;9.786;2023-03-23T14:45:47;3.07;;;0.70;;
5391;SDS011;2719;53.624;9.786;2023-03-23T14:48:18;1.50;;;0.40;;
5391;SDS011;2719;53.624;9.786;2023-03-23T14:50:48;3.07;;;0.70;;
5391;SDS011;2719;53.624;9.786;2023-03-23T14:53:18;1.57;;;0.53;;
5391;SDS011;2719;53.624;9.786;2023-03-23T14:55:47;18.50;;;1.00;;
5391;SDS011;2719;53.624;9.786;2023-03-23T14:58:16;3.43;;;0.70;;
5391;SDS011;2719;53.624;9.786;2023-03-23T15:00:45;2.30;;;0.57;;
5391;SDS011;2719;53.624;9.786;2023-03-23T15:03:17;3.77;;;0.70;;
5391;SDS011;2719;53.624;9.786;2023-03-23T15:05:46;3.07;;;0.90;;
5391;SDS011;2719;53.624;9.786;2023-03-23T15:08:18;5.50;;;0.90;;
5391;SDS011;2719;53.624;9.786;2023-03-23T15:10:51;6.40;;;1.00;;
5391;SDS011;2719;53.624;9.786;2023-03-23T15:13:19;3.50;;;0.50;;
5391;SDS011;2719;53.624;9.786;2023-03-23T15:15:47;8.07;;;0.67;;
5391;SDS011;2719;53.624;9.786;2023-03-23T15:18:22;5.67;;;1.00;;
5391;SDS011;2719;53.624;9.786;2023-03-23T15:20:56;4.13;;;0.60;;
5391;SDS011;2719;53.624;9.786;2023-03-23T15:23:26;2.40;;;0.50;;
5391;SDS011;2719;53.624;9.786;2023-03-23T15:25:54;7.50;;;0.80;;
5391;SDS011;2719;53.624;9.786;2023-03-23T15:28:27;4.57;;;1.20;;
5391;SDS011;2719;53.624;9.786;2023-03-23T15:30:57;6.00;;;0.70;;
5391;SDS011;2719;53.624;9.786;2023-03-23T15:33:26;8.70;;;0.93;;
5391;SDS011;2719;53.624;9.786;2023-03-23T15:36:04;5.80;;;0.90;;
5391;SDS011;2719;53.624;9.786;2023-03-23T15:38:34;5.40;;;0.90;;